^^
Datos históricos de la estación: Murcia-Puente Tocinos
Diario Informe para Diciembre 24, 2019 Unidades:  Ingés    Métrico   Ambas
Diario Semanal Mensual Anual
  Máxima: Mínima: Promedio:
Temperatura: 72.9 °F 46 °F 57.9 °F
Punto de rocio: 50.4 °F 41.2 °F 45.9 °F
Humedad: 84% 43% 66%
Velocidad viento: 6.4mph 0mph 3.7mph
Racha viento: 11mph - -
Viento- - SSO
Presión: 30.4 in 30.2 in -
Precipitación: 0 in    
 
 
Tabla de datos para Diciembre 24, 2019
Hora Temperatura Punto de rocio Presión Viento Velocidad viento Racha viento Humedad Intensidad lluvia(por hora) Nubes
00:04 54.9 °F 46.4 °F 30.3 in OSO 1.3 mph 3 mph 73% 0 in
00:09 54.9 °F 46.2 °F 30.3 in OSO 2 mph 2.9 mph 73% 0 in
00:14 54.5 °F 46 °F 30.3 in SSO 1.6 mph 4 mph 73% 0 in
00:19 54.3 °F 46.2 °F 30.3 in Sur 1.4 mph 3.6 mph 73.9% 0 in
00:24 54.1 °F 46 °F 30.3 in SSE 2.4 mph 4.7 mph 74% 0 in
00:29 54 °F 45.9 °F 30.3 in Sur 2.9 mph 5 mph 74% 0 in
00:34 54 °F 46 °F 30.3 in SSO 3 mph 5.2 mph 74.5% 0 in
00:39 54 °F 46.2 °F 30.3 in SSO 3.1 mph 5 mph 75% 0 in
00:44 54 °F 46.2 °F 30.3 in Sur 3 mph 5 mph 74.9% 0 in
00:49 53.8 °F 45.7 °F 30.3 in SSE 2.9 mph 4.7 mph 74.2% 0 in
00:54 53.6 °F 45.7 °F 30.3 in SSE 3 mph 6.4 mph 74.3% 0 in
00:59 53.2 °F 45.5 °F 30.3 in Sur 3.1 mph 7 mph 75% 0 in
01:04 53.1 °F 45.5 °F 30.3 in SSE 4.2 mph 7 mph 75.7% 0 in
01:09 52.7 °F 45.3 °F 30.3 in SSE 4.7 mph 7 mph 76% 0 in
01:14 52.5 °F 45.1 °F 30.3 in Sur 4.5 mph 7 mph 76% 0 in
01:19 52.3 °F 45.3 °F 30.3 in Sur 4.3 mph 6.2 mph 77% 0 in
01:24 52.3 °F 45.3 °F 30.3 in Sur 3.9 mph 6 mph 77% 0 in
01:29 52.5 °F 45.1 °F 30.3 in Sur 3.6 mph 6 mph 76% 0 in
01:34 52.7 °F 45.3 °F 30.3 in SSO 3.9 mph 6.9 mph 76% 0 in
01:39 53.1 °F 45.3 °F 30.3 in SO 4 mph 7 mph 74.9% 0 in
01:44 53.4 °F 45.3 °F 30.3 in SO 4 mph 6.2 mph 74% 0 in
01:49 53.6 °F 45.1 °F 30.3 in SO 4 mph 6 mph 73.1% 0 in
01:54 53.6 °F 45.1 °F 30.3 in SO 3.4 mph 5 mph 73% 0 in
01:59 53.6 °F 45 °F 30.3 in SSE 3.1 mph 5 mph 72.5% 0 in
02:04 52.9 °F 44.6 °F 30.3 in SSE 3 mph 5 mph 73.1% 0 in
02:09 52.2 °F 44.4 °F 30.3 in Sur 2.9 mph 5 mph 74.9% 0 in
02:14 51.8 °F 44.6 °F 30.3 in SSO 3 mph 5 mph 76.3% 0 in
02:19 51.6 °F 44.8 °F 30.3 in SO 3.1 mph 5 mph 77% 0 in
02:24 52 °F 44.8 °F 30.3 in OSO 2.7 mph 6.2 mph 76.4% 0 in
02:29 52.2 °F 44.6 °F 30.3 in OSO 2.4 mph 6.9 mph 75.5% 0 in
02:34 52.3 °F 44.6 °F 30.3 in SO 3.2 mph 7 mph 75% 0 in
02:39 52.5 °F 44.6 °F 30.3 in SO 3.6 mph 5.2 mph 74.4% 0 in
02:44 52.5 °F 44.6 °F 30.3 in SO 3.3 mph 5 mph 74% 0 in
02:49 52.7 °F 44.6 °F 30.3 in Sur 3.1 mph 5 mph 74% 0 in
02:54 52.3 °F 44.2 °F 30.3 in SSE 3.1 mph 5.2 mph 74.1% 0 in
02:59 51.6 °F 44.1 °F 30.3 in SSE 3.1 mph 5 mph 75.2% 0 in
03:04 51.4 °F 44.1 °F 30.3 in SSE 3.1 mph 5 mph 76% 0 in
03:09 51.1 °F 44.1 °F 30.3 in SSE 3.1 mph 5.2 mph 76.8% 0 in
03:14 50.7 °F 43.9 °F 30.3 in SSE 3.4 mph 5.9 mph 77.1% 0 in
03:19 50.4 °F 43.9 °F 30.3 in Sur 3.6 mph 6 mph 78% 0 in
03:24 50.4 °F 44.1 °F 30.3 in Sur 3.9 mph 6.4 mph 78.8% 0 in
03:29 50.4 °F 44.2 °F 30.3 in SO 4 mph 7 mph 79% 0 in
03:34 50.7 °F 44.2 °F 30.3 in SO 4 mph 6 mph 78.7% 0 in
03:39 51.1 °F 44.4 °F 30.3 in SO 4 mph 6 mph 78% 0 in
03:44 51.3 °F 44.4 °F 30.3 in SO 3.4 mph 6 mph 77.2% 0 in
03:49 51.3 °F 44.2 °F 30.3 in SO 2.9 mph 4.6 mph 77% 0 in
03:54 51.3 °F 44.2 °F 30.3 in SSO 2.9 mph 5 mph 77% 0 in
03:59 51.3 °F 44.2 °F 30.3 in Sur 2.9 mph 5 mph 77% 0 in
04:04 51.3 °F 44.2 °F 30.3 in SSE 2.9 mph 5 mph 77% 0 in
04:09 51.3 °F 44.2 °F 30.3 in SSE 2.9 mph 5 mph 77% 0 in
04:14 51.1 °F 44.1 °F 30.3 in SE 2.6 mph 3.6 mph 77% 0 in
04:19 50.7 °F 43.9 °F 30.3 in SE 2.4 mph 4 mph 77% 0 in
04:24 50.4 °F 43.7 °F 30.3 in SE 2.4 mph 4.7 mph 77.6% 0 in
04:29 50 °F 43.3 °F 30.3 in SSE 2.4 mph 5.9 mph 78% 0 in
04:34 49.6 °F 43.3 °F 30.3 in SSE 3.2 mph 6 mph 79% 0 in
04:39 49.5 °F 43.5 °F 30.3 in SSE 3.6 mph 5.9 mph 80% 0 in
04:44 49.3 °F 43.3 °F 30.3 in SSE 3.9 mph 6 mph 80% 0 in
04:49 49.3 °F 43.3 °F 30.3 in Sur 4 mph 5 mph 80% 0 in
04:54 49.3 °F 43.3 °F 30.3 in Sur 3.7 mph 5.2 mph 80% 0 in
04:59 49.3 °F 43.5 °F 30.3 in Sur 3.6 mph 5 mph 80.2% 0 in
05:04 49.3 °F 43.3 °F 30.3 in SSE 3.6 mph 5 mph 80% 0 in
05:09 49.3 °F 43.5 °F 30.3 in SSE 3.6 mph 5 mph 80% 0 in
05:14 49.3 °F 43.3 °F 30.3 in SSE 3.2 mph 5 mph 80% 0 in
05:19 48.9 °F 43.2 °F 30.3 in Sur 2.9 mph 5.2 mph 80% 0 in
05:24 48.9 °F 43 °F 30.3 in Sur 3 mph 5.2 mph 80% 0 in
05:29 48.9 °F 43.3 °F 30.3 in Sur 3.1 mph 5 mph 80.9% 0 in
05:34 48.9 °F 43.2 °F 30.3 in SSE 3 mph 5 mph 80.1% 0 in
05:39 48.9 °F 43 °F 30.3 in Sur 2.9 mph 5 mph 80% 0 in
05:44 48.9 °F 43 °F 30.3 in SSE 2.9 mph 5 mph 80% 0 in
05:49 48.6 °F 42.8 °F 30.3 in SSE 2.9 mph 5 mph 80.2% 0 in
05:54 48.6 °F 43 °F 30.3 in SSE 3 mph 5 mph 81% 0 in
05:59 48.6 °F 43 °F 30.3 in SE 3.1 mph 5 mph 81% 0 in
06:04 48.4 °F 42.8 °F 30.3 in SE 3 mph 5 mph 81% 0 in
06:09 48 °F 42.4 °F 30.3 in SE 2.9 mph 5 mph 81% 0 in
06:14 47.8 °F 42.3 °F 30.3 in SSE 2.9 mph 5 mph 81.2% 0 in
06:19 47.7 °F 42.4 °F 30.3 in SSE 2.9 mph 5.2 mph 82% 0 in
06:24 47.5 °F 42.3 °F 30.3 in SSE 3.3 mph 6.2 mph 82% 0 in
06:29 47.5 °F 42.3 °F 30.3 in SSE 3.6 mph 6.2 mph 82% 0 in
06:34 47.5 °F 42.4 °F 30.3 in Sur 4 mph 6 mph 82.7% 0 in
06:39 47.5 °F 42.6 °F 30.3 in Sur 4.3 mph 6 mph 83% 0 in
06:44 47.7 °F 42.8 °F 30.3 in Sur 3.9 mph 5.8 mph 82.9% 0 in
06:49 47.8 °F 42.6 °F 30.3 in Sur 3.6 mph 6 mph 82% 0 in
06:54 48 °F 42.8 °F 30.3 in Sur 3.6 mph 5.9 mph 81.8% 0 in
06:59 48 °F 42.4 °F 30.3 in Sur 3.6 mph 6.2 mph 81% 0 in
07:04 48 °F 42.6 °F 30.3 in Sur 4 mph 6.4 mph 81% 0 in
07:09 48.2 °F 42.6 °F 30.3 in Sur 4.3 mph 7 mph 81% 0 in
07:14 48.2 °F 42.6 °F 30.3 in Sur 4.5 mph 7 mph 81% 0 in
07:19 48 °F 42.4 °F 30.3 in Sur 4.7 mph 7 mph 81% 0 in
07:24 48 °F 42.4 °F 30.3 in SSE 4.5 mph 7 mph 81% 0 in
07:29 47.8 °F 42.3 °F 30.3 in SSE 4.3 mph 6 mph 81% 0 in
07:34 47.8 °F 42.3 °F 30.3 in Sur 3.9 mph 5.8 mph 81% 0 in
07:39 47.7 °F 42.1 °F 30.3 in Sur 3.6 mph 6.2 mph 81% 0 in
07:44 47.7 °F 42.3 °F 30.3 in Sur 3.9 mph 6 mph 81.4% 0 in
07:49 47.8 °F 42.4 °F 30.3 in Sur 4 mph 6.2 mph 81.6% 0 in
07:54 48 °F 42.4 °F 30.3 in Sur 4 mph 6 mph 81% 0 in
07:59 48 °F 42.3 °F 30.3 in Sur 4 mph 5.9 mph 80.4% 0 in
08:04 48 °F 42.1 °F 30.3 in Sur 4 mph 6.2 mph 80% 0 in
08:09 48 °F 42.1 °F 30.4 in SSE 4 mph 6 mph 80% 0 in
08:14 47.8 °F 41.9 °F 30.4 in SE 4 mph 6 mph 80% 0 in
08:19 47.3 °F 41.5 °F 30.4 in SSE 4 mph 5.9 mph 80.1% 0 in
08:24 46.8 °F 41.2 °F 30.4 in SSE 4 mph 6.2 mph 81% 0 in
08:29 46.4 °F 41.2 °F 30.4 in SSE 4 mph 6 mph 82% 0 in
08:34 46 °F 41.2 °F 30.4 in SSE 4 mph 6 mph 82.9% 0 in
08:39 46 °F 41.4 °F 30.4 in SE 4 mph 5.9 mph 83.5% 0 in
08:44 46 °F 41.5 °F 30.4 in SSE 3.4 mph 6 mph 84% 0 in
08:49 46.4 °F 41.9 °F 30.4 in SSE 3.1 mph 6 mph 84% 0 in
08:54 46.8 °F 42.1 °F 30.4 in SSO 3.1 mph 5 mph 83.3% 0 in
08:59 47.3 °F 42.3 °F 30.4 in SSO 3.1 mph 5.2 mph 82.6% 0 in
09:04 47.8 °F 42.4 °F 30.4 in SSO 3.1 mph 5 mph 81.6% 0 in
09:09 48.4 °F 42.8 °F 30.4 in SSO 3.1 mph 5 mph 81% 0 in
09:14 49.1 °F 43.2 °F 30.4 in SSE 2.1 mph 3 mph 80% 0 in
09:19 50 °F 43.3 °F 30.4 in SE 1.4 mph 4 mph 78% 0 in
09:24 50.4 °F 43.2 °F 30.4 in Sur 1.7 mph 5 mph 76% 0 in
09:29 50.5 °F 43.3 °F 30.4 in Sur 2 mph 5.2 mph 76% 0 in
09:34 50.7 °F 43.2 °F 30.4 in SSO 2.7 mph 5.2 mph 75.3% 0 in
09:39 50.9 °F 43.3 °F 30.4 in Sur 3.1 mph 5 mph 75.5% 0 in
09:44 51.3 °F 43.5 °F 30.4 in SSO 3 mph 5.8 mph 75% 0 in
09:49 51.4 °F 43.7 °F 30.4 in SO 2.9 mph 6.2 mph 74.7% 0 in
09:54 52 °F 43.7 °F 30.4 in SO 3.4 mph 8.1 mph 73.3% 0 in
09:59 52.3 °F 43.5 °F 30.4 in SSO 3.6 mph 8 mph 71.8% 0 in
10:04 53.1 °F 43.7 °F 30.4 in SSO 3.9 mph 7 mph 70.8% 0 in
10:09 53.4 °F 43.9 °F 30.4 in Sur 4 mph 6 mph 69.6% 0 in
10:14 54 °F 43.9 °F 30.4 in Sur 3.8 mph 6 mph 68.5% 0 in
10:19 54.5 °F 43.9 °F 30.4 in SSO 3.6 mph 7.4 mph 67.3% 0 in
10:24 54.9 °F 43.7 °F 30.4 in SSO 4 mph 8.5 mph 66.4% 0 in
10:29 55 °F 43.9 °F 30.4 in SSO 4.3 mph 9 mph 66% 0 in
10:34 55.4 °F 43.9 °F 30.4 in SO 4.5 mph 9.2 mph 65.4% 0 in
10:39 55.8 °F 44.1 °F 30.4 in SO 4.7 mph 9 mph 64.7% 0 in
10:44 56.1 °F 43.9 °F 30.4 in SO 4.2 mph 9.7 mph 63.3% 0 in
10:49 56.3 °F 43.5 °F 30.4 in OSO 4 mph 10 mph 62.2% 0 in
10:54 56.5 °F 43.9 °F 30.4 in SO 4.7 mph 9 mph 62.9% 0 in
10:59 56.5 °F 44.1 °F 30.4 in OSO 5.2 mph 7.6 mph 63% 0 in
11:04 56.8 °F 43.9 °F 30.4 in OSO 4.9 mph 9.2 mph 62% 0 in
11:09 57 °F 44.1 °F 30.4 in OSO 4.7 mph 9 mph 61.8% 0 in
11:14 57.2 °F 44.2 °F 30.4 in OSO 4.7 mph 8 mph 62% 0 in
11:19 57.6 °F 44.4 °F 30.4 in OSO 4.7 mph 7 mph 61.8% 0 in
11:24 57.9 °F 44.4 °F 30.4 in OSO 4 mph 6.9 mph 60.7% 0 in
11:29 58.5 °F 44.4 °F 30.4 in SO 3.6 mph 7 mph 60.1% 0 in
11:34 58.6 °F 44.6 °F 30.4 in OSO 3.3 mph 5 mph 59.5% 0 in
11:39 59.2 °F 44.8 °F 30.4 in SO 3.1 mph 6.2 mph 59% 0 in
11:44 59.5 °F 44.6 °F 30.4 in SO 3.4 mph 9.2 mph 57.8% 0 in
11:49 59.7 °F 44.4 °F 30.4 in SO 3.6 mph 9.2 mph 56.9% 0 in
11:54 60.3 °F 45 °F 30.4 in SO 5 mph 9 mph 57% 0 in
11:59 60.6 °F 45.1 °F 30.4 in SSO 5.9 mph 8.5 mph 56.5% 0 in
12:04 61.2 °F 45.1 °F 30.4 in SSO 4.8 mph 10.2 mph 55.5% 0 in
12:09 61.2 °F 45 °F 30.4 in SSO 4.3 mph 10.4 mph 55% 0 in
12:14 61.3 °F 45.5 °F 30.4 in SO 5.3 mph 9.2 mph 55.9% 0 in
12:19 61.5 °F 45.5 °F 30.4 in SO 5.9 mph 10.7 mph 55.8% 0 in
12:24 61.9 °F 46 °F 30.4 in SSO 6.2 mph 11 mph 56% 0 in
12:29 62.2 °F 46.2 °F 30.3 in SO 6.4 mph 9 mph 56% 0 in
12:34 62.8 °F 46.6 °F 30.3 in SO 5 mph 8 mph 55.7% 0 in
12:39 63.1 °F 46.6 °F 30.3 in OSO 4.3 mph 8.7 mph 54.9% 0 in
12:44 63.3 °F 46.4 °F 30.3 in OSO 4.6 mph 10.4 mph 54% 0 in
12:49 63.5 °F 46.8 °F 30.3 in OSO 4.7 mph 10 mph 54.4% 0 in
12:54 63.9 °F 46.9 °F 30.3 in OSO 5.5 mph 9.2 mph 54% 0 in
12:59 64.2 °F 47.3 °F 30.3 in SO 5.9 mph 9 mph 54% 0 in
13:04 64.8 °F 47.7 °F 30.3 in OSO 4.4 mph 6.2 mph 54% 0 in
13:09 65.1 °F 47.8 °F 30.3 in SO 3.6 mph 7.6 mph 53.8% 0 in
13:14 65.5 °F 47.8 °F 30.3 in OSO 3.9 mph 8.1 mph 53% 0 in
13:19 65.7 °F 48.2 °F 30.3 in SSO 4 mph 8.5 mph 53.1% 0 in
13:24 65.8 °F 48.4 °F 30.3 in SSO 4.5 mph 9 mph 53% 0 in
13:29 66.4 °F 48.6 °F 30.3 in Sur 4.7 mph 9 mph 52.9% 0 in
13:34 66.7 °F 48.6 °F 30.3 in Sur 4.7 mph 8.1 mph 52.2% 0 in
13:39 66.7 °F 48.6 °F 30.3 in SSO 4.7 mph 8 mph 52% 0 in
13:44 67.3 °F 48.9 °F 30.3 in Sur 4.3 mph 6.9 mph 52% 0 in
13:49 67.5 °F 48.9 °F 30.3 in SSO 4 mph 9.2 mph 51.6% 0 in
13:54 67.5 °F 49.1 °F 30.3 in Sur 4.9 mph 9 mph 51.6% 0 in
13:59 67.6 °F 48.9 °F 30.3 in Sur 5.4 mph 8.1 mph 51.1% 0 in
14:04 68 °F 49.3 °F 30.3 in Sur 4.5 mph 7.6 mph 51% 0 in
14:09 68.4 °F 49.5 °F 30.3 in Sur 4 mph 8.1 mph 50.7% 0 in
14:14 68.5 °F 49.3 °F 30.3 in SSO 4.2 mph 8 mph 50.2% 0 in
14:19 68.5 °F 49.3 °F 30.3 in SSO 4.3 mph 6.9 mph 50% 0 in
14:24 68.7 °F 49.3 °F 30.3 in SSO 4.3 mph 8.1 mph 50% 0 in
14:29 69.1 °F 49.5 °F 30.3 in SSO 4.3 mph 8.1 mph 49.6% 0 in
14:34 69.4 °F 49.5 °F 30.3 in SSO 4.8 mph 8 mph 49.1% 0 in
14:39 69.6 °F 49.5 °F 30.3 in SSO 5.2 mph 8.1 mph 48.9% 0 in
14:44 69.8 °F 49.6 °F 30.3 in SSO 4.6 mph 8 mph 48.7% 0 in
14:49 70 °F 49.6 °F 30.3 in SSO 4.3 mph 6.9 mph 48.4% 0 in
14:54 70.2 °F 49.6 °F 30.3 in SSO 4.1 mph 7 mph 48.2% 0 in
14:59 70.3 °F 49.8 °F 30.3 in SSO 4 mph 5.9 mph 48% 0 in
15:04 70.7 °F 50 °F 30.3 in SSO 4 mph 9.2 mph 47.9% 0 in
15:09 70.9 °F 49.6 °F 30.3 in SSO 4 mph 9 mph 47.1% 0 in
15:14 71.1 °F 49.8 °F 30.3 in SO 4 mph 8 mph 47% 0 in
15:19 71.2 °F 49.6 °F 30.3 in SO 4 mph 7.4 mph 46.1% 0 in
15:24 71.6 °F 49.6 °F 30.3 in SO 3.8 mph 7.4 mph 45.8% 0 in
15:29 71.8 °F 49.6 °F 30.3 in OSO 3.6 mph 7 mph 45.6% 0 in
15:34 72 °F 49.6 °F 30.3 in SO 4 mph 8.1 mph 45.5% 0 in
15:39 72 °F 49.8 °F 30.3 in SSO 4.3 mph 8 mph 45.6% 0 in
15:44 72.1 °F 49.6 °F 30.3 in OSO 3.9 mph 8.1 mph 44.9% 0 in
15:49 72.3 °F 49.3 °F 30.3 in OSO 3.6 mph 8.1 mph 44.1% 0 in
15:54 72.5 °F 49.3 °F 30.3 in SO 3.9 mph 6 mph 44% 0 in
15:59 72.7 °F 49.5 °F 30.3 in SO 4 mph 6.9 mph 44% 0 in
16:04 72.7 °F 49.5 °F 30.3 in OSO 3.7 mph 7 mph 44% 0 in
16:09 72.7 °F 49.5 °F 30.3 in OSO 3.6 mph 7.4 mph 44% 0 in
16:14 72.7 °F 49.5 °F 30.2 in OSO 3.9 mph 7 mph 44% 0 in
16:19 72.9 °F 49.6 °F 30.2 in OSO 4 mph 6.2 mph 44% 0 in
16:24 72.9 °F 49.6 °F 30.2 in SO 3.7 mph 8.1 mph 43.7% 0 in
16:29 72.9 °F 49.1 °F 30.2 in SO 3.6 mph 8.1 mph 43% 0 in
16:34 72.9 °F 49.1 °F 30.2 in SO 4 mph 7.4 mph 43% 0 in
16:39 72.9 °F 49.3 °F 30.2 in OSO 4.3 mph 8.1 mph 43.2% 0 in
16:44 72.7 °F 49.6 °F 30.2 in OSO 4.5 mph 8 mph 44% 0 in
16:49 72.7 °F 49.5 °F 30.2 in OSO 4.7 mph 6 mph 44% 0 in
16:54 72.9 °F 49.3 °F 30.2 in OSO 3.7 mph 5.2 mph 43.3% 0 in
16:59 72.9 °F 49.5 °F 30.2 in OSO 3.1 mph 5.8 mph 43.7% 0 in
17:04 72.7 °F 49.5 °F 30.2 in OSO 3.1 mph 6 mph 44% 0 in
17:09 72.7 °F 49.5 °F 30.2 in OSO 3.1 mph 5 mph 44% 0 in
17:14 72.7 °F 49.5 °F 30.2 in OSO 3 mph 5 mph 44% 0 in
17:19 72.3 °F 49.3 °F 30.2 in Oeste 2.9 mph 5 mph 44.1% 0 in
17:24 72.1 °F 49.6 °F 30.2 in Oeste 2.5 mph 5 mph 45% 0 in
17:29 72 °F 49.5 °F 30.2 in Oeste 2.4 mph 4 mph 45% 0 in
17:34 71.8 °F 49.3 °F 30.2 in Oeste 2.4 mph 4.6 mph 45% 0 in
17:39 71.6 °F 49.6 °F 30.2 in Oeste 2.4 mph 5 mph 45.8% 0 in
17:44 71.2 °F 49.5 °F 30.2 in Oeste 2.4 mph 4 mph 46% 0 in
17:49 70.9 °F 49.6 °F 30.2 in Oeste 2.4 mph 3 mph 46.9% 0 in
17:54 70.3 °F 49.5 °F 30.2 in Oeste 2 mph 3.5 mph 47.4% 0 in
17:59 70.2 °F 49.5 °F 30.2 in Oeste 1.8 mph 3.5 mph 48% 0 in
18:04 69.8 °F 49.5 °F 30.2 in OSO 1.9 mph 3.5 mph 48.6% 0 in
18:09 69.4 °F 49.8 °F 30.2 in SO 2 mph 4.6 mph 49.7% 0 in
18:14 69.1 °F 50 °F 30.2 in SSO 2.6 mph 5 mph 50.7% 0 in
18:19 68.5 °F 50.2 °F 30.2 in SSE 2.9 mph 4.7 mph 52% 0 in
18:24 67.8 °F 50.4 °F 30.2 in SSE 2.9 mph 5.2 mph 53.5% 0 in
18:29 67.1 °F 50.2 °F 30.2 in Sur 2.9 mph 5 mph 54.5% 0 in
18:34 66.7 °F 50.2 °F 30.2 in SSE 3.4 mph 5.2 mph 55.3% 0 in
18:39 66.6 °F 50.4 °F 30.2 in SE 3.6 mph 5 mph 56% 0 in
18:44 66 °F 50.2 °F 30.2 in SE 1.4 mph 2 mph 56.5% 0 in
18:49 65.7 °F 50 °F 30.2 in Calm   2.4 mph 57% 0 in
18:54 65.3 °F 50 °F 30.2 in SE 0.9 mph 2.3 mph 57.6% 0 in
18:59 64.9 °F 50.2 °F 30.2 in SE 1.4 mph 2.9 mph 58.6% 0 in
19:04 64.8 °F 50 °F 30.2 in SE 1.4 mph 3.1 mph 59% 0 in
19:09 64.4 °F 49.6 °F 30.2 in SSE 1.4 mph 4.7 mph 59% 0 in
19:14 63.9 °F 49.6 °F 30.2 in Sur 2.4 mph 5.8 mph 59.9% 0 in
19:19 63.7 °F 49.5 °F 30.2 in SSE 3.1 mph 6.2 mph 60% 0 in
19:24 63.5 °F 48.9 °F 30.2 in Sur 4.1 mph 7.4 mph 59% 0 in
19:29 63.3 °F 48.4 °F 30.2 in Sur 4.7 mph 7 mph 58% 0 in
19:34 63.3 °F 48.4 °F 30.2 in Sur 5 mph 7 mph 58% 0 in
19:39 63.1 °F 48.2 °F 30.2 in Sur 5.2 mph 6 mph 58% 0 in
19:44 63 °F 48 °F 30.2 in Sur 4.4 mph 6 mph 58.2% 0 in
19:49 62.8 °F 48 °F 30.2 in SSE 4 mph 6 mph 58.7% 0 in
19:54 62.4 °F 48.4 °F 30.2 in Oeste 3.4 mph 5 mph 60.1% 0 in
19:59 61.7 °F 48.7 °F 30.2 in NO 2.9 mph 4.6 mph 62.5% 0 in
20:04 60.8 °F 48.6 °F 30.2 in ONO 2.5 mph 5 mph 64% 0 in
20:09 60.4 °F 48.6 °F 30.3 in Oeste 2.4 mph 5 mph 65% 0 in
20:14 60.3 °F 48 °F 30.3 in Oeste 2.4 mph 4.6 mph 64.1% 0 in
20:19 60.3 °F 47.8 °F 30.3 in OSO 2.4 mph 5 mph 63.4% 0 in
20:22 60.3 °F 47.7 °F 30.3 in OSO 2.5 mph 5 mph 63.1% 0 in
20:39 59.7 °F 47.1 °F 30.3 in SSO 2.9 mph 4.6 mph 63% 0 in
20:44 59.7 °F 46.8 °F 30.3 in SSO 2.9 mph 5.2 mph 62.1% 0 in
20:49 59.9 °F 46.8 °F 30.3 in Sur 2.9 mph 5.2 mph 62% 0 in
20:54 59.9 °F 46.6 °F 30.3 in SSE 3 mph 5.9 mph 61.7% 0 in
20:59 59.7 °F 46.8 °F 30.3 in SSE 3.1 mph 6 mph 62% 0 in
21:04 59.5 °F 46.4 °F 30.3 in SSE 3.7 mph 6.9 mph 62% 0 in
21:09 59.2 °F 46.6 °F 30.3 in SSE 4 mph 7 mph 62.9% 0 in
21:14 58.8 °F 46.4 °F 30.3 in Sur 4.4 mph 8.1 mph 63.2% 0 in
21:19 58.6 °F 46.6 °F 30.3 in Sur 4.7 mph 8.1 mph 64% 0 in
21:24 58.6 °F 46.6 °F 30.3 in SSO 5.1 mph 8 mph 64.4% 0 in
21:29 58.6 °F 46.9 °F 30.3 in SSO 5.4 mph 7 mph 65% 0 in
21:34 58.8 °F 46.8 °F 30.3 in SSO 5 mph 8.1 mph 64.1% 0 in
21:39 59 °F 46.8 °F 30.3 in SO 4.7 mph 8.1 mph 63.5% 0 in
21:44 59 °F 46.4 °F 30.3 in SSO 4.7 mph 7 mph 63% 0 in
21:49 58.8 °F 46.2 °F 30.3 in SSO 4.7 mph 6 mph 63% 0 in
21:54 58.6 °F 46.2 °F 30.3 in SSO 4 mph 6.2 mph 63.3% 0 in
21:59 58.5 °F 46.4 °F 30.3 in SSO 3.6 mph 7.4 mph 64% 0 in
22:04 58.5 °F 46.6 °F 30.3 in SSO 4.3 mph 8.1 mph 65% 0 in
22:09 58.3 °F 46.6 °F 30.3 in Sur 4.7 mph 8.1 mph 65% 0 in
22:14 58.1 °F 46.4 °F 30.3 in SSE 5 mph 7 mph 65% 0 in
22:19 57.9 °F 46.2 °F 30.3 in Sur 5.2 mph 7 mph 65.3% 0 in
22:24 57.7 °F 46.4 °F 30.3 in Sur 4.5 mph 7 mph 66% 0 in
22:29 57.2 °F 46 °F 30.3 in Sur 4 mph 7.4 mph 66.5% 0 in
22:34 56.8 °F 46 °F 30.3 in SSO 4.7 mph 8.1 mph 67.5% 0 in
22:39 56.5 °F 46.2 °F 30.3 in SSO 5.2 mph 9.2 mph 68.5% 0 in
22:44 56.5 °F 46.4 °F 30.3 in SSO 5.2 mph 9 mph 69% 0 in
22:49 56.3 °F 46.2 °F 30.3 in Sur 5.2 mph 8 mph 69% 0 in
22:54 56.3 °F 46.2 °F 30.3 in Sur 4.5 mph 6 mph 69% 0 in
22:59 56.1 °F 46.4 °F 30.3 in Sur 4 mph 6.2 mph 69.7% 0 in
23:04 55.9 °F 46.2 °F 30.3 in Sur 4.2 mph 6 mph 70% 0 in
23:09 55.8 °F 46 °F 30.3 in SSE 4.3 mph 6 mph 70% 0 in
23:14 55.2 °F 45.9 °F 30.3 in SSE 4.1 mph 6 mph 70.7% 0 in
23:19 54.7 °F 45.7 °F 30.3 in SSE 4 mph 6 mph 71.6% 0 in
23:24 54.1 °F 45.3 °F 30.3 in SSE 4 mph 6.2 mph 72.1% 0 in
23:29 53.6 °F 45.3 °F 30.3 in SSE 4 mph 6 mph 73.2% 0 in
23:34 53.2 °F 45.3 °F 30.3 in Sur 4 mph 6.9 mph 74.4% 0 in
23:39 53.2 °F 45.5 °F 30.3 in Sur 4 mph 7 mph 75% 0 in
23:44 53.2 °F 45.5 °F 30.3 in Sur 4.2 mph 7 mph 75% 0 in
23:49 53.2 °F 45.5 °F 30.3 in SSO 4.3 mph 6.2 mph 75% 0 in
23:54 53.4 °F 45.7 °F 30.3 in Sur 4.3 mph 6.2 mph 74.6% 0 in
23:59 53.8 °F 45.7 °F 30.3 in Sur 4.3 mph 6 mph 74% 0 in
Murcia-Puente Tocinos, España
Compliments of Weather Underground - 3 mb

La estación de MeteoMurcia.com, publica sus datos en los siguientes proyectos:

Weather Underground PWS IMURCIAP2 Meteoclimatic www.awekas.at

W3Counter
Web Analytics